createdAt,value
2023-04-15T00:01:20.061Z,7.49
2023-04-15T00:03:47.897Z,7.54
2023-04-15T00:06:14.850Z,7.57
2023-04-15T00:08:41.894Z,7.67
2023-04-15T00:11:08.562Z,7.80
2023-04-15T00:13:35.154Z,7.86
2023-04-15T00:16:02.339Z,7.95
2023-04-15T00:18:29.960Z,8.00
2023-04-15T00:20:56.694Z,8.02
2023-04-15T00:23:23.742Z,8.07
2023-04-15T00:25:51.028Z,8.09
2023-04-15T00:28:17.848Z,8.00
2023-04-15T00:30:45.187Z,8.02
2023-04-15T00:33:13.076Z,8.04
2023-04-15T00:35:39.779Z,8.02
2023-04-15T00:38:08.319Z,8.11
2023-04-15T00:40:35.522Z,8.05
2023-04-15T00:43:02.377Z,7.73
2023-04-15T00:45:29.382Z,7.48
2023-04-15T00:47:56.885Z,7.42
2023-04-15T00:50:23.744Z,7.33
2023-04-15T00:52:50.331Z,7.29
2023-04-15T00:55:17.038Z,7.34
2023-04-15T00:57:44.723Z,7.19
2023-04-15T01:00:12.212Z,7.28
2023-04-15T01:02:39.376Z,7.25
2023-04-15T01:05:06.266Z,7.21
2023-04-15T01:07:32.868Z,7.28
2023-04-15T01:09:59.836Z,7.30
2023-04-15T01:12:28.575Z,7.11
2023-04-15T01:14:56.302Z,7.05
2023-04-15T01:17:24.544Z,6.85
2023-04-15T01:19:52.284Z,6.62
2023-04-15T01:22:19.057Z,6.54
2023-04-15T01:24:59.332Z,6.51
2023-04-15T01:27:26.092Z,6.53
2023-04-15T01:29:52.818Z,6.49
2023-04-15T01:32:20.030Z,6.32
2023-04-15T01:34:46.804Z,6.24
2023-04-15T01:37:13.594Z,6.18
2023-04-15T01:39:40.492Z,6.09
2023-04-15T01:42:07.707Z,6.20
2023-04-15T01:44:34.377Z,6.27
2023-04-15T01:47:01.040Z,6.30
2023-04-15T01:49:27.814Z,6.32
2023-04-15T01:51:54.940Z,6.30
2023-04-15T01:54:21.597Z,6.18
2023-04-15T01:56:48.377Z,6.12
2023-04-15T01:59:15.009Z,6.14
2023-04-15T02:01:42.162Z,6.17
2023-04-15T02:04:16.515Z,6.17
2023-04-15T02:06:44.059Z,6.12
2023-04-15T02:09:10.812Z,6.09
2023-04-15T02:11:37.780Z,6.17
2023-04-15T02:14:05.889Z,6.10
2023-04-15T02:16:33.842Z,5.94
2023-04-15T02:19:01.383Z,5.93
2023-04-15T02:21:28.274Z,5.97
2023-04-15T02:23:54.931Z,5.90
2023-04-15T02:26:22.389Z,5.81
2023-04-15T02:28:51.326Z,5.67
2023-04-15T02:31:18.198Z,5.71
2023-04-15T02:33:45.156Z,5.71
2023-04-15T02:36:12.526Z,5.51
2023-04-15T02:38:41.354Z,5.24
2023-04-15T02:41:10.329Z,4.78
2023-04-15T02:43:37.067Z,4.73
2023-04-15T02:46:04.150Z,4.73
2023-04-15T02:48:30.964Z,4.64
2023-04-15T02:51:20.115Z,4.59
2023-04-15T02:53:48.480Z,4.50
2023-04-15T02:56:17.146Z,4.46
2023-04-15T02:58:45.250Z,4.30
2023-04-15T03:01:12.191Z,4.33
2023-04-15T03:03:39.097Z,4.11
2023-04-15T03:06:05.922Z,4.32
2023-04-15T03:08:32.509Z,4.35
2023-04-15T03:11:00.944Z,4.38
2023-04-15T03:13:27.649Z,4.36
2023-04-15T03:15:54.334Z,4.33
2023-04-15T03:18:21.592Z,4.30
2023-04-15T03:20:48.255Z,4.15
2023-04-15T03:23:14.999Z,4.23
2023-04-15T03:25:42.184Z,4.06
2023-04-15T03:28:08.821Z,4.19
2023-04-15T03:30:35.444Z,4.08
2023-04-15T03:33:02.186Z,4.01
2023-04-15T03:35:28.920Z,3.95
2023-04-15T03:37:55.708Z,4.00
2023-04-15T03:40:22.603Z,3.89
2023-04-15T03:42:49.236Z,3.87
2023-04-15T03:45:16.090Z,3.94
2023-04-15T03:47:42.793Z,3.75
2023-04-15T03:50:09.797Z,3.77
2023-04-15T03:52:36.527Z,3.79
2023-04-15T03:55:03.193Z,3.80
2023-04-15T03:57:29.829Z,3.82
2023-04-15T03:59:56.497Z,3.83
2023-04-15T04:02:23.566Z,3.86
2023-04-15T04:04:50.825Z,3.78
2023-04-15T04:07:18.519Z,3.79
2023-04-15T04:09:47.045Z,3.91
2023-04-15T04:12:14.055Z,4.16
2023-04-15T04:14:41.006Z,4.29
2023-04-15T04:17:07.893Z,4.42
2023-04-15T04:19:34.639Z,4.46
2023-04-15T04:22:01.542Z,4.54
2023-04-15T04:24:28.174Z,4.74
2023-04-15T04:26:54.852Z,4.92
2023-04-15T04:29:21.428Z,4.97
2023-04-15T04:31:48.821Z,5.13
2023-04-15T04:34:16.356Z,5.18
2023-04-15T04:36:43.041Z,5.27
2023-04-15T04:39:09.737Z,5.50
2023-04-15T04:41:36.364Z,5.60
2023-04-15T04:44:03.668Z,5.62
2023-04-15T04:46:30.485Z,5.70
2023-04-15T04:48:57.204Z,5.72
2023-04-15T04:51:24.936Z,5.78
2023-04-15T04:53:51.680Z,5.72
2023-04-15T04:56:18.299Z,5.80
2023-04-15T04:58:44.962Z,6.46
2023-04-15T05:01:11.592Z,7.47
2023-04-15T05:03:38.360Z,8.94
2023-04-15T05:06:07.376Z,10.09
2023-04-15T05:08:34.073Z,11.20
2023-04-15T05:11:00.767Z,12.35
2023-04-15T05:13:27.351Z,12.99
2023-04-15T05:15:53.973Z,13.12
2023-04-15T05:18:20.748Z,14.04
2023-04-15T05:20:47.499Z,14.19
2023-04-15T05:23:14.111Z,14.61
2023-04-15T05:25:40.715Z,14.45
2023-04-15T05:28:07.337Z,13.60
2023-04-15T05:30:34.081Z,13.65
2023-04-15T05:33:01.038Z,14.07
2023-04-15T05:35:27.938Z,13.64
2023-04-15T05:37:54.610Z,13.58
2023-04-15T05:40:21.251Z,13.52
2023-04-15T05:42:47.900Z,13.25
2023-04-15T05:45:14.492Z,12.38
2023-04-15T05:47:41.120Z,12.37
2023-04-15T05:50:08.394Z,12.33
2023-04-15T05:52:35.244Z,12.26
2023-04-15T05:55:01.919Z,12.39
2023-04-15T05:57:28.485Z,12.41
2023-04-15T05:59:57.296Z,12.71
2023-04-15T06:02:24.183Z,12.14
2023-04-15T06:04:50.811Z,12.23
2023-04-15T06:07:17.449Z,12.50
2023-04-15T06:09:44.919Z,12.61
2023-04-15T06:12:13.128Z,12.73
2023-04-15T06:14:40.630Z,12.87
2023-04-15T06:17:07.609Z,12.69
2023-04-15T06:19:34.997Z,12.48
2023-04-15T06:22:01.864Z,12.49
2023-04-15T06:24:28.964Z,12.30
2023-04-15T06:26:55.959Z,11.70
2023-04-15T06:29:22.552Z,11.73
2023-04-15T06:31:50.057Z,11.42
2023-04-15T06:34:17.182Z,11.42
2023-04-15T06:36:43.745Z,11.32
2023-04-15T06:39:10.686Z,11.64
2023-04-15T06:41:37.425Z,11.63
2023-04-15T06:44:04.182Z,11.79
2023-04-15T06:46:30.831Z,11.84
2023-04-15T06:48:57.468Z,11.62
2023-04-15T06:51:26.520Z,11.58
2023-04-15T06:53:53.409Z,11.79
2023-04-15T06:56:20.135Z,11.76
2023-04-15T06:58:47.339Z,12.04
2023-04-15T07:01:14.408Z,12.05
2023-04-15T07:03:42.155Z,11.97
2023-04-15T07:06:09.931Z,11.95
2023-04-15T07:08:36.809Z,11.85
2023-04-15T07:11:03.398Z,11.96
2023-04-15T07:13:31.875Z,11.55
2023-04-15T07:15:58.877Z,11.45
2023-04-15T07:18:25.797Z,11.82
2023-04-15T07:20:52.656Z,11.73
2023-04-15T07:23:19.389Z,11.76
2023-04-15T07:25:46.007Z,11.86
2023-04-15T07:28:12.581Z,12.18
2023-04-15T07:30:39.692Z,12.15
2023-04-15T07:33:06.328Z,12.22
2023-04-15T07:35:33.317Z,12.45
2023-04-15T07:37:59.908Z,12.50
2023-04-15T07:40:26.672Z,12.64
2023-04-15T07:42:53.382Z,12.78
2023-04-15T07:45:20.131Z,12.62
2023-04-15T07:47:47.022Z,12.46
2023-04-15T07:50:13.827Z,12.74
2023-04-15T07:52:40.651Z,13.16
2023-04-15T07:55:10.860Z,13.39
2023-04-15T07:57:37.598Z,14.07
2023-04-15T08:00:05.832Z,14.59
2023-04-15T08:02:32.786Z,14.92
2023-04-15T08:04:59.946Z,14.98
2023-04-15T08:07:27.396Z,15.14
2023-04-15T08:09:54.015Z,15.19
2023-04-15T08:12:20.658Z,15.47
2023-04-15T08:14:47.491Z,14.57
2023-04-15T08:17:14.107Z,14.44
2023-04-15T08:19:40.908Z,14.44
2023-04-15T08:22:10.261Z,14.91
2023-04-15T08:24:44.559Z,15.11
2023-04-15T08:27:11.219Z,14.72
2023-04-15T08:29:37.775Z,14.78
2023-04-15T08:32:04.829Z,14.81
2023-04-15T08:34:32.082Z,15.09
2023-04-15T08:36:58.759Z,15.14
2023-04-15T08:39:25.524Z,14.79
2023-04-15T08:42:01.782Z,15.13
2023-04-15T08:44:34.589Z,14.91
2023-04-15T08:47:03.034Z,14.94
2023-04-15T08:49:30.524Z,15.15
2023-04-15T08:51:59.978Z,14.95
2023-04-15T08:54:28.172Z,14.79
2023-04-15T08:56:55.175Z,14.46
2023-04-15T08:59:22.245Z,14.26
2023-04-15T09:01:51.473Z,14.68
2023-04-15T09:04:18.636Z,14.64
2023-04-15T09:06:45.670Z,14.22
2023-04-15T09:09:14.453Z,14.12
2023-04-15T09:11:42.483Z,14.30
2023-04-15T09:14:09.363Z,14.55
2023-04-15T09:16:56.958Z,14.86
2023-04-15T09:19:24.830Z,15.08
2023-04-15T09:21:55.518Z,15.11
2023-04-15T09:24:24.786Z,14.82
2023-04-15T09:26:57.803Z,15.15
2023-04-15T09:29:26.071Z,15.12
2023-04-15T09:31:53.046Z,15.12
2023-04-15T09:34:20.139Z,15.30
2023-04-15T09:36:47.722Z,15.19
2023-04-15T09:39:15.497Z,15.36
2023-04-15T09:41:43.776Z,15.83
2023-04-15T09:44:27.113Z,15.46
2023-04-15T09:46:53.895Z,15.30
2023-04-15T09:49:21.052Z,15.26
2023-04-15T09:51:58.013Z,15.15
2023-04-15T09:54:36.738Z,15.03
2023-04-15T09:57:08.363Z,15.13
2023-04-15T09:59:35.080Z,14.71
2023-04-15T10:02:04.699Z,14.75
2023-04-15T10:04:35.586Z,14.61
2023-04-15T10:07:05.270Z,14.37
2023-04-15T10:09:33.703Z,14.46
2023-04-15T10:12:01.248Z,14.79
2023-04-15T10:14:30.791Z,15.21
2023-04-15T10:17:01.381Z,15.27
2023-04-15T10:19:31.524Z,15.33
2023-04-15T10:22:02.359Z,15.27
2023-04-15T10:24:32.006Z,14.86
2023-04-15T10:27:00.357Z,14.87
2023-04-15T10:29:27.848Z,14.92
2023-04-15T10:31:56.494Z,14.69
2023-04-15T10:34:26.898Z,15.00
2023-04-15T10:37:03.917Z,15.33
2023-04-15T10:39:34.157Z,15.74
2023-04-15T10:42:10.983Z,15.64
2023-04-15T10:44:39.298Z,15.67
2023-04-15T10:47:19.172Z,15.38
2023-04-15T10:49:57.987Z,15.24
2023-04-15T10:52:27.740Z,15.42
2023-04-15T10:55:25.251Z,15.70
2023-04-15T10:57:58.520Z,16.03
2023-04-15T11:00:26.914Z,16.74
2023-04-15T11:02:54.971Z,16.82
2023-04-15T11:05:42.947Z,16.37
2023-04-15T11:08:10.756Z,16.52
2023-04-15T11:10:37.273Z,16.67
2023-04-15T11:13:06.267Z,16.39
2023-04-15T11:15:34.201Z,16.84
2023-04-15T11:18:10.397Z,16.87
2023-04-15T11:20:38.740Z,16.53
2023-04-15T11:23:12.841Z,16.45
2023-04-15T11:25:41.962Z,16.76
2023-04-15T11:28:10.412Z,17.03
2023-04-15T11:30:38.308Z,17.10
2023-04-15T11:33:08.794Z,17.36
2023-04-15T11:35:35.977Z,17.48
2023-04-15T11:38:08.701Z,17.12
2023-04-15T11:40:36.228Z,16.75
2023-04-15T11:43:16.653Z,16.88
2023-04-15T11:45:59.485Z,17.33
2023-04-15T11:48:29.716Z,17.70
2023-04-15T11:50:59.649Z,17.67
2023-04-15T11:53:46.167Z,16.77
2023-04-15T11:56:23.967Z,16.59
2023-04-15T11:59:00.513Z,16.38
2023-04-15T12:01:44.062Z,16.51
2023-04-15T12:04:25.597Z,16.68
2023-04-15T12:06:52.713Z,17.21
2023-04-15T12:09:20.440Z,17.00
2023-04-15T12:11:52.802Z,17.09
2023-04-15T12:14:33.234Z,16.96
2023-04-15T12:17:04.948Z,17.11
2023-04-15T12:19:43.257Z,16.91
2023-04-15T12:22:12.071Z,17.14
2023-04-15T12:24:39.588Z,16.98
2023-04-15T12:27:11.998Z,16.68
2023-04-15T12:29:40.674Z,16.67
2023-04-15T12:32:12.636Z,16.97
2023-04-15T12:34:40.391Z,17.26
2023-04-15T12:37:10.114Z,17.21
2023-04-15T12:39:48.833Z,17.05
2023-04-15T12:42:16.522Z,16.74
2023-04-15T12:44:43.199Z,17.05
2023-04-15T12:47:10.990Z,17.36
2023-04-15T12:49:38.107Z,16.83
2023-04-15T12:52:05.436Z,16.94
2023-04-15T12:54:32.282Z,17.34
2023-04-15T12:56:59.701Z,17.26
2023-04-15T12:59:26.922Z,17.56
2023-04-15T13:01:54.604Z,18.05
2023-04-15T13:04:22.255Z,18.01
2023-04-15T13:06:49.534Z,18.17
2023-04-15T13:09:16.306Z,18.07
2023-04-15T13:11:43.385Z,17.77
2023-04-15T13:14:13.210Z,17.40
2023-04-15T13:16:40.950Z,17.84
2023-04-15T13:19:07.646Z,18.49
2023-04-15T13:21:36.265Z,18.19
2023-04-15T13:24:05.257Z,17.88
2023-04-15T13:26:32.384Z,17.76
2023-04-15T13:29:00.194Z,17.13
2023-04-15T13:31:27.712Z,17.14
2023-04-15T13:33:57.826Z,17.08
2023-04-15T13:36:25.258Z,17.26
2023-04-15T13:38:52.671Z,17.08
2023-04-15T13:41:20.161Z,17.56
2023-04-15T13:43:47.407Z,17.81
2023-04-15T13:46:14.168Z,17.60
2023-04-15T13:48:40.943Z,17.60
2023-04-15T13:51:07.598Z,17.89
2023-04-15T13:53:38.713Z,17.35
2023-04-15T13:56:07.387Z,17.45
2023-04-15T13:58:34.034Z,17.64
2023-04-15T14:01:02.575Z,17.81
2023-04-15T14:03:30.939Z,17.71
2023-04-15T14:05:58.447Z,17.68
2023-04-15T14:08:25.839Z,17.61
2023-04-15T14:10:53.048Z,17.88
2023-04-15T14:13:19.842Z,17.35
2023-04-15T14:15:47.901Z,17.56
2023-04-15T14:18:15.190Z,17.78
2023-04-15T14:20:41.887Z,17.53
2023-04-15T14:23:08.857Z,17.63
2023-04-15T14:25:35.783Z,17.60
2023-04-15T14:28:03.609Z,17.52
2023-04-15T14:30:30.692Z,17.23
2023-04-15T14:32:57.499Z,17.25
2023-04-15T14:35:26.574Z,17.29
2023-04-15T14:37:54.131Z,17.27
2023-04-15T14:40:20.817Z,17.58
2023-04-15T14:42:47.710Z,17.64
2023-04-15T14:45:14.441Z,17.52
2023-04-15T14:47:41.294Z,17.88
2023-04-15T14:50:08.467Z,17.63
2023-04-15T14:52:38.884Z,17.29
2023-04-15T14:55:10.756Z,17.03
2023-04-15T14:57:38.066Z,16.93
2023-04-15T15:00:07.060Z,16.92
2023-04-15T15:02:39.197Z,16.96
2023-04-15T15:05:08.605Z,17.16
2023-04-15T15:07:37.302Z,17.24
2023-04-15T15:10:07.118Z,17.43
2023-04-15T15:12:34.286Z,17.77
2023-04-15T15:15:02.912Z,17.78
2023-04-15T15:17:31.734Z,17.95
2023-04-15T15:19:58.722Z,17.91
2023-04-15T15:22:26.114Z,17.60
2023-04-15T15:24:53.700Z,17.27
2023-04-15T15:27:20.728Z,17.38
2023-04-15T15:29:47.382Z,17.31
2023-04-15T15:32:13.960Z,17.44
2023-04-15T15:34:40.800Z,17.68
2023-04-15T15:37:07.453Z,17.66
2023-04-15T15:39:35.315Z,17.35
2023-04-15T15:42:01.979Z,17.22
2023-04-15T15:44:28.746Z,17.27
2023-04-15T15:46:55.512Z,17.24
2023-04-15T15:49:23.352Z,17.35
2023-04-15T15:51:50.097Z,17.55
2023-04-15T15:54:19.376Z,17.51
2023-04-15T15:56:47.626Z,17.26
2023-04-15T15:59:14.313Z,17.30
2023-04-15T16:01:41.485Z,17.05
2023-04-15T16:04:08.442Z,16.89
2023-04-15T16:06:35.541Z,16.95
2023-04-15T16:09:02.517Z,16.91
2023-04-15T16:11:29.587Z,16.96
2023-04-15T16:13:56.411Z,16.75
2023-04-15T16:16:23.829Z,16.61
2023-04-15T16:18:51.039Z,16.52
2023-04-15T16:21:17.882Z,16.48
2023-04-15T16:23:45.190Z,16.39
2023-04-15T16:26:11.807Z,16.05
2023-04-15T16:28:38.424Z,16.32
2023-04-15T16:31:05.122Z,16.11
2023-04-15T16:33:32.484Z,15.99
2023-04-15T16:36:00.316Z,15.87
2023-04-15T16:38:26.942Z,15.88
2023-04-15T16:40:55.419Z,16.04
2023-04-15T16:43:22.022Z,15.92
2023-04-15T16:45:51.558Z,15.79
2023-04-15T16:48:19.874Z,15.80
2023-04-15T16:50:47.298Z,15.67
2023-04-15T16:53:15.648Z,15.55
2023-04-15T16:55:42.594Z,15.54
2023-04-15T16:58:09.332Z,15.58
2023-04-15T17:00:37.295Z,15.40
2023-04-15T17:03:06.134Z,15.34
2023-04-15T17:05:33.557Z,15.23
2023-04-15T17:08:00.843Z,15.20
2023-04-15T17:10:27.895Z,15.14
2023-04-15T17:13:00.314Z,15.11
2023-04-15T17:15:31.812Z,15.00
2023-04-15T17:17:59.339Z,14.39
2023-04-15T17:20:29.357Z,14.91
2023-04-15T17:22:56.686Z,14.61
2023-04-15T17:25:27.740Z,14.80
2023-04-15T17:27:55.596Z,14.57
2023-04-15T17:30:23.983Z,14.06
2023-04-15T17:32:54.487Z,14.32
2023-04-15T17:35:23.692Z,14.85
2023-04-15T17:37:51.688Z,14.80
2023-04-15T17:40:21.629Z,14.68
2023-04-15T17:43:02.201Z,14.45
2023-04-15T17:45:30.032Z,14.77
2023-04-15T17:47:56.964Z,14.63
2023-04-15T17:50:23.791Z,14.48
2023-04-15T17:52:51.517Z,14.38
2023-04-15T17:55:18.634Z,14.61
2023-04-15T17:57:46.617Z,14.73
2023-04-15T18:00:14.348Z,14.50
2023-04-15T18:02:41.855Z,14.57
2023-04-15T18:05:09.430Z,14.60
2023-04-15T18:07:36.397Z,14.34
2023-04-15T18:10:06.054Z,14.07
2023-04-15T18:12:32.856Z,14.17
2023-04-15T18:15:04.757Z,14.16
2023-04-15T18:17:34.882Z,14.29
2023-04-15T18:20:04.234Z,14.21
2023-04-15T18:22:31.190Z,14.28
2023-04-15T18:25:04.733Z,14.10
2023-04-15T18:27:35.536Z,14.26
2023-04-15T18:30:02.715Z,14.22
2023-04-15T18:32:31.912Z,14.22
2023-04-15T18:34:59.063Z,14.17
2023-04-15T18:37:27.819Z,14.12
2023-04-15T18:39:54.524Z,14.13
2023-04-15T18:42:22.552Z,14.10
2023-04-15T18:44:49.751Z,14.05
2023-04-15T18:47:16.403Z,13.85
2023-04-15T18:49:43.075Z,13.84
2023-04-15T18:52:10.865Z,13.72
2023-04-15T18:54:40.702Z,13.83
2023-04-15T18:57:07.471Z,13.77
2023-04-15T18:59:34.287Z,13.68
2023-04-15T19:02:03.567Z,13.58
2023-04-15T19:04:30.709Z,13.53
2023-04-15T19:06:59.087Z,13.49
2023-04-15T19:09:26.308Z,13.48
2023-04-15T19:11:52.900Z,13.51
2023-04-15T19:14:19.573Z,13.46
2023-04-15T19:16:46.292Z,13.27
2023-04-15T19:19:14.710Z,13.20
2023-04-15T19:21:41.628Z,13.12
2023-04-15T19:24:08.287Z,13.18
2023-04-15T19:26:36.784Z,13.12
2023-04-15T19:29:04.172Z,13.22
2023-04-15T19:31:31.026Z,13.26
2023-04-15T19:33:57.641Z,13.27
2023-04-15T19:36:24.223Z,13.16
2023-04-15T19:38:50.980Z,13.38
2023-04-15T19:41:17.655Z,13.34
2023-04-15T19:43:44.228Z,13.40
2023-04-15T19:46:13.275Z,13.33
2023-04-15T19:48:40.088Z,13.35
2023-04-15T19:51:06.770Z,13.32
2023-04-15T19:53:33.410Z,13.22
2023-04-15T19:56:00.099Z,12.72
2023-04-15T19:58:26.744Z,12.50
2023-04-15T20:00:53.640Z,12.28
2023-04-15T20:03:20.982Z,12.15
2023-04-15T20:05:47.795Z,12.07
2023-04-15T20:08:14.419Z,11.92
2023-04-15T20:10:41.253Z,11.82
2023-04-15T20:13:07.927Z,11.52
2023-04-15T20:15:34.671Z,11.68
2023-04-15T20:18:01.374Z,11.68
2023-04-15T20:20:28.285Z,11.66
2023-04-15T20:22:54.914Z,11.62
2023-04-15T20:25:21.711Z,11.61
2023-04-15T20:27:48.354Z,11.44
2023-04-15T20:30:14.978Z,11.49
2023-04-15T20:32:41.656Z,11.51
2023-04-15T20:35:08.576Z,11.48
2023-04-15T20:37:37.251Z,11.61
2023-04-15T20:40:04.336Z,11.54
2023-04-15T20:42:36.558Z,11.51
2023-04-15T20:45:03.194Z,11.47
2023-04-15T20:47:30.317Z,11.48
2023-04-15T20:49:57.057Z,11.42
2023-04-15T20:52:23.786Z,11.48
2023-04-15T20:54:51.312Z,11.41
2023-04-15T20:57:18.226Z,11.58
2023-04-15T20:59:45.029Z,11.56
2023-04-15T21:02:12.113Z,11.56
2023-04-15T21:04:39.097Z,11.57
2023-04-15T21:07:06.022Z,11.53
2023-04-15T21:09:32.760Z,11.59
2023-04-15T21:12:01.579Z,11.56
2023-04-15T21:14:29.224Z,11.55
2023-04-15T21:16:58.329Z,11.48
2023-04-15T21:19:24.958Z,11.50
2023-04-15T21:21:51.643Z,11.50
2023-04-15T21:24:18.248Z,11.66
2023-04-15T21:26:44.917Z,11.62
2023-04-15T21:29:12.090Z,11.64
2023-04-15T21:31:38.995Z,11.62
2023-04-15T21:34:05.804Z,11.60
2023-04-15T21:36:32.759Z,11.53
2023-04-15T21:38:59.927Z,11.65
2023-04-15T21:41:27.001Z,11.69
2023-04-15T21:43:53.960Z,11.71
2023-04-15T21:46:21.864Z,11.74
2023-04-15T21:48:52.791Z,11.71
2023-04-15T21:51:19.465Z,11.80
2023-04-15T21:53:46.151Z,11.87
2023-04-15T21:56:12.961Z,11.82
2023-04-15T21:58:39.588Z,11.82
2023-04-15T22:01:06.465Z,11.83
2023-04-15T22:03:35.239Z,11.84
2023-04-15T22:06:04.434Z,11.67
2023-04-15T22:08:41.775Z,11.55
2023-04-15T22:11:23.185Z,11.39
2023-04-15T22:13:49.912Z,11.00
2023-04-15T22:16:16.531Z,10.96
2023-04-15T22:18:43.215Z,10.69
2023-04-15T22:21:09.829Z,10.73
2023-04-15T22:23:36.535Z,10.50
2023-04-15T22:26:04.939Z,10.40
2023-04-15T22:28:31.601Z,10.61
2023-04-15T22:30:58.989Z,10.49
2023-04-15T22:33:25.829Z,10.50
2023-04-15T22:35:52.535Z,10.54
2023-04-15T22:38:19.103Z,10.43
2023-04-15T22:40:46.702Z,10.14
2023-04-15T22:43:13.402Z,10.26
2023-04-15T22:45:40.098Z,10.20
2023-04-15T22:48:06.892Z,10.21
2023-04-15T22:50:33.479Z,10.22
2023-04-15T22:53:00.163Z,10.25
2023-04-15T22:55:26.803Z,10.18
2023-04-15T22:57:53.508Z,10.04
2023-04-15T23:00:20.459Z,10.00
2023-04-15T23:02:47.167Z,9.99
2023-04-15T23:05:13.970Z,10.06
2023-04-15T23:07:40.671Z,10.11
2023-04-15T23:10:08.130Z,10.17
2023-04-15T23:12:34.923Z,10.17
2023-04-15T23:15:03.372Z,10.11
2023-04-15T23:17:30.163Z,10.13
2023-04-15T23:19:56.902Z,10.07
2023-04-15T23:22:23.634Z,10.11
2023-04-15T23:24:50.323Z,10.14
2023-04-15T23:27:19.089Z,10.14
2023-04-15T23:29:46.158Z,10.08
2023-04-15T23:32:12.952Z,10.05
2023-04-15T23:34:39.580Z,10.00
2023-04-15T23:37:06.202Z,9.96
2023-04-15T23:39:32.996Z,9.91
2023-04-15T23:41:59.694Z,9.93
2023-04-15T23:44:26.451Z,9.90
2023-04-15T23:46:53.150Z,9.93
2023-04-15T23:49:20.544Z,9.82
2023-04-15T23:51:47.566Z,9.89
2023-04-15T23:54:14.846Z,9.69
2023-04-15T23:56:41.506Z,9.48
2023-04-15T23:59:08.349Z,9.44
